createdAt,value
2023-03-15T00:00:42.412Z,0.80
2023-03-15T00:01:46.553Z,0.90
2023-03-15T00:02:48.319Z,0.87
2023-03-15T00:03:51.276Z,1.07
2023-03-15T00:04:54.976Z,1.10
2023-03-15T00:05:59.010Z,0.70
2023-03-15T00:07:01.072Z,0.97
2023-03-15T00:08:04.643Z,1.00
2023-03-15T00:09:06.355Z,1.00
2023-03-15T00:10:10.028Z,0.80
2023-03-15T00:11:11.718Z,0.80
2023-03-15T00:12:14.386Z,1.13
2023-03-15T00:13:17.196Z,0.80
2023-03-15T00:14:19.883Z,1.00
2023-03-15T00:15:21.549Z,1.10
2023-03-15T00:16:27.198Z,1.10
2023-03-15T00:17:28.971Z,0.70
2023-03-15T00:18:32.431Z,1.07
2023-03-15T00:19:34.205Z,0.97
2023-03-15T00:20:38.055Z,1.17
2023-03-15T00:21:43.352Z,1.37
2023-03-15T00:22:46.160Z,1.00
2023-03-15T00:23:48.194Z,0.90
2023-03-15T00:24:50.867Z,1.10
2023-03-15T00:25:52.846Z,0.90
2023-03-15T00:26:55.480Z,1.03
2023-03-15T00:27:57.307Z,0.87
2023-03-15T00:29:00.017Z,1.33
2023-03-15T00:30:01.792Z,0.90
2023-03-15T00:31:06.102Z,1.03
2023-03-15T00:32:08.862Z,1.20
2023-03-15T00:33:13.720Z,1.33
2023-03-15T00:34:17.381Z,1.70
2023-03-15T00:35:19.375Z,0.90
2023-03-15T00:36:23.936Z,1.00
2023-03-15T00:37:27.087Z,1.13
2023-03-15T00:38:29.802Z,0.70
2023-03-15T00:39:37.686Z,0.77
2023-03-15T00:40:39.548Z,1.40
2023-03-15T00:41:42.282Z,0.73
2023-03-15T00:42:50.019Z,0.70
2023-03-15T00:43:53.284Z,0.70
2023-03-15T00:44:55.582Z,1.07
2023-03-15T00:45:59.080Z,0.83
2023-03-15T00:47:00.742Z,0.97
2023-03-15T00:48:03.415Z,1.00
2023-03-15T00:49:05.099Z,0.90
2023-03-15T00:50:08.136Z,0.97
2023-03-15T00:51:11.994Z,0.80
2023-03-15T00:52:14.666Z,0.70
2023-03-15T00:53:17.777Z,0.90
2023-03-15T00:54:23.721Z,0.90
2023-03-15T00:55:26.974Z,1.00
2023-03-15T00:56:31.001Z,1.27
2023-03-15T00:57:33.584Z,1.20
2023-03-15T00:58:36.342Z,0.80
2023-03-15T00:59:38.042Z,1.10
2023-03-15T01:00:41.380Z,0.70
2023-03-15T01:01:44.811Z,1.10
2023-03-15T01:02:47.797Z,0.77
2023-03-15T01:03:50.085Z,0.80
2023-03-15T01:04:52.769Z,0.67
2023-03-15T01:05:54.487Z,1.00
2023-03-15T01:06:57.208Z,1.00
2023-03-15T01:07:58.938Z,0.83
2023-03-15T01:09:02.991Z,0.80
2023-03-15T01:10:06.291Z,0.83
2023-03-15T01:11:11.695Z,0.80
2023-03-15T01:12:13.421Z,1.20
2023-03-15T01:13:16.062Z,0.80
2023-03-15T01:14:18.908Z,1.13
2023-03-15T01:15:23.121Z,0.77
2023-03-15T01:16:25.732Z,0.73
2023-03-15T01:17:28.641Z,0.70
2023-03-15T01:18:31.035Z,0.90
2023-03-15T01:19:33.790Z,0.70
2023-03-15T01:20:35.481Z,0.80
2023-03-15T01:21:38.181Z,0.63
2023-03-15T01:22:40.034Z,0.47
2023-03-15T01:23:43.105Z,0.60
2023-03-15T01:24:46.599Z,0.57
2023-03-15T01:25:49.330Z,0.90
2023-03-15T01:26:51.046Z,0.40
2023-03-15T01:27:53.750Z,0.83
2023-03-15T01:28:55.743Z,0.70
2023-03-15T01:29:58.475Z,0.57
2023-03-15T01:31:00.403Z,0.50
2023-03-15T01:32:03.050Z,0.90
2023-03-15T01:33:05.084Z,0.97
2023-03-15T01:34:08.692Z,1.00
2023-03-15T01:35:10.834Z,0.70
2023-03-15T01:36:14.112Z,0.60
2023-03-15T01:37:15.806Z,0.87
2023-03-15T01:38:18.438Z,0.70
2023-03-15T01:39:20.135Z,0.67
2023-03-15T01:40:24.189Z,1.10
2023-03-15T01:41:27.250Z,0.80
2023-03-15T01:42:29.900Z,0.67
2023-03-15T01:43:32.692Z,0.50
2023-03-15T01:44:50.741Z,0.67
2023-03-15T01:46:23.472Z,0.70
2023-03-15T01:47:26.093Z,0.60
2023-03-15T01:48:31.194Z,0.63
2023-03-15T01:49:33.708Z,0.97
2023-03-15T01:50:36.381Z,0.70
2023-03-15T01:51:41.923Z,0.70
2023-03-15T01:52:44.773Z,0.60
2023-03-15T01:53:49.365Z,0.80
2023-03-15T01:54:53.735Z,1.00
2023-03-15T01:55:57.379Z,0.50
2023-03-15T01:57:03.045Z,0.63
2023-03-15T01:58:07.030Z,0.70
2023-03-15T01:59:12.988Z,0.70
2023-03-15T02:00:16.069Z,0.50
2023-03-15T02:01:20.310Z,0.70
2023-03-15T02:02:23.300Z,0.53
2023-03-15T02:03:29.250Z,0.70
2023-03-15T02:04:33.728Z,0.60
2023-03-15T02:05:46.303Z,0.67
2023-03-15T02:06:48.240Z,0.97
2023-03-15T02:07:54.533Z,0.60
2023-03-15T02:09:00.178Z,0.93
2023-03-15T02:10:05.540Z,0.90
2023-03-15T02:11:08.606Z,0.83
2023-03-15T02:12:12.048Z,0.50
2023-03-15T02:13:16.766Z,0.83
2023-03-15T02:14:19.620Z,0.60
2023-03-15T02:15:21.340Z,0.80
2023-03-15T02:16:24.976Z,0.70
2023-03-15T02:17:32.180Z,0.87
2023-03-15T02:18:36.647Z,0.93
2023-03-15T02:19:46.285Z,0.80
2023-03-15T02:20:53.594Z,1.03
2023-03-15T02:21:59.726Z,0.70
2023-03-15T02:23:03.959Z,0.67
2023-03-15T02:24:15.330Z,1.00
2023-03-15T02:25:23.635Z,1.20
2023-03-15T02:26:32.515Z,0.97
2023-03-15T02:27:37.505Z,0.90
2023-03-15T02:28:39.689Z,0.80
2023-03-15T02:29:42.889Z,0.70
2023-03-15T02:30:45.620Z,1.00
2023-03-15T02:31:48.443Z,1.00
2023-03-15T02:32:50.271Z,0.57
2023-03-15T02:33:55.439Z,0.90
2023-03-15T02:34:57.332Z,1.17
2023-03-15T02:36:11.525Z,0.80
2023-03-15T02:37:13.235Z,0.97
2023-03-15T02:38:15.895Z,0.70
2023-03-15T02:39:19.854Z,0.60
2023-03-15T02:40:24.164Z,0.53
2023-03-15T02:41:28.858Z,1.10
2023-03-15T02:42:31.609Z,0.73
2023-03-15T02:43:35.399Z,0.70
2023-03-15T02:44:39.248Z,0.77
2023-03-15T02:45:41.210Z,0.53
2023-03-15T02:46:44.309Z,0.80
2023-03-15T02:47:47.324Z,0.87
2023-03-15T02:48:51.631Z,0.50
2023-03-15T02:49:54.068Z,0.97
2023-03-15T02:50:56.795Z,1.07
2023-03-15T02:51:58.577Z,0.80
2023-03-15T02:53:02.998Z,0.83
2023-03-15T02:54:04.719Z,1.00
2023-03-15T02:55:08.545Z,0.87
2023-03-15T02:56:10.204Z,0.60
2023-03-15T02:57:13.657Z,0.70
2023-03-15T02:58:15.399Z,0.90
2023-03-15T02:59:19.430Z,1.20
2023-03-15T03:00:21.730Z,0.70
2023-03-15T03:01:24.419Z,0.83
2023-03-15T03:02:26.532Z,0.63
2023-03-15T03:03:29.294Z,0.60
2023-03-15T03:04:30.978Z,0.80
2023-03-15T03:05:33.751Z,0.60
2023-03-15T03:06:35.432Z,0.60
2023-03-15T03:07:38.283Z,0.80
2023-03-15T03:08:39.986Z,0.80
2023-03-15T03:09:42.764Z,0.80
2023-03-15T03:10:44.426Z,1.10
2023-03-15T03:11:47.066Z,0.93
2023-03-15T03:12:53.361Z,0.70
2023-03-15T03:13:56.193Z,0.77
2023-03-15T03:14:59.277Z,0.70
2023-03-15T03:16:01.947Z,1.00
2023-03-15T03:17:03.825Z,0.70
2023-03-15T03:18:06.686Z,1.20
2023-03-15T03:19:08.501Z,1.17
2023-03-15T03:20:13.525Z,0.80
2023-03-15T03:21:15.241Z,1.03
2023-03-15T03:22:17.987Z,0.77
2023-03-15T03:23:19.798Z,0.83
2023-03-15T03:24:25.699Z,0.73
2023-03-15T03:25:28.141Z,0.90
2023-03-15T03:26:32.697Z,0.60
2023-03-15T03:27:36.724Z,0.60
2023-03-15T03:28:39.386Z,0.70
2023-03-15T03:29:41.468Z,0.70
2023-03-15T03:30:45.563Z,0.60
2023-03-15T03:31:47.231Z,0.80
2023-03-15T03:32:50.005Z,0.80
2023-03-15T03:33:53.254Z,0.60
2023-03-15T03:34:55.426Z,1.10
2023-03-15T03:36:02.213Z,0.87
2023-03-15T03:37:04.028Z,0.60
2023-03-15T03:38:06.923Z,0.67
2023-03-15T03:39:10.940Z,0.67
2023-03-15T03:40:14.437Z,0.70
2023-03-15T03:41:16.252Z,0.63
2023-03-15T03:42:19.114Z,0.70
2023-03-15T03:43:20.847Z,0.73
2023-03-15T03:44:23.721Z,0.70
2023-03-15T03:45:25.399Z,0.60
2023-03-15T03:46:29.822Z,0.90
2023-03-15T03:47:31.594Z,0.83
2023-03-15T03:48:35.230Z,0.80
2023-03-15T03:49:37.107Z,0.57
2023-03-15T03:50:39.782Z,1.00
2023-03-15T03:51:41.500Z,0.67
2023-03-15T03:52:44.866Z,0.70
2023-03-15T03:53:46.667Z,0.60
2023-03-15T03:54:49.348Z,0.60
2023-03-15T03:55:51.277Z,1.00
2023-03-15T03:56:54.005Z,0.70
2023-03-15T03:57:55.777Z,0.80
2023-03-15T03:58:58.465Z,0.60
2023-03-15T04:00:00.236Z,0.70
2023-03-15T04:01:04.037Z,1.00
2023-03-15T04:02:07.193Z,0.90
2023-03-15T04:03:09.985Z,0.60
2023-03-15T04:04:14.175Z,1.03
2023-03-15T04:05:17.051Z,0.90
2023-03-15T04:06:18.832Z,0.83
2023-03-15T04:07:21.468Z,0.60
2023-03-15T04:08:24.089Z,0.77
2023-03-15T04:09:26.948Z,0.70
2023-03-15T04:10:28.681Z,0.90
2023-03-15T04:11:31.376Z,0.87
2023-03-15T04:12:33.130Z,0.80
2023-03-15T04:13:35.826Z,0.97
2023-03-15T04:14:37.570Z,0.90
2023-03-15T04:15:40.258Z,0.60
2023-03-15T04:16:42.042Z,0.80
2023-03-15T04:17:46.233Z,0.80
2023-03-15T04:18:47.930Z,0.70
2023-03-15T04:19:50.719Z,1.10
2023-03-15T04:20:54.601Z,0.50
2023-03-15T04:21:57.404Z,0.77
2023-03-15T04:22:59.098Z,0.70
2023-03-15T04:24:02.548Z,0.97
2023-03-15T04:25:04.946Z,0.60
2023-03-15T04:26:07.603Z,0.70
2023-03-15T04:27:09.911Z,1.13
2023-03-15T04:28:12.608Z,0.77
2023-03-15T04:29:15.341Z,0.77
2023-03-15T04:30:18.575Z,0.90
2023-03-15T04:31:20.415Z,0.80
2023-03-15T04:32:23.132Z,0.90
2023-03-15T04:33:26.628Z,1.17
2023-03-15T04:34:29.918Z,0.70
2023-03-15T04:35:33.877Z,0.70
2023-03-15T04:36:36.851Z,0.70
2023-03-15T04:37:38.713Z,1.10
2023-03-15T04:38:41.396Z,0.73
2023-03-15T04:39:43.118Z,0.63
2023-03-15T04:40:45.787Z,0.80
2023-03-15T04:41:47.462Z,0.83
2023-03-15T04:42:50.177Z,1.57
2023-03-15T04:43:51.878Z,0.90
2023-03-15T04:44:54.805Z,1.20
2023-03-15T04:45:56.479Z,0.73
2023-03-15T04:46:59.286Z,0.90
2023-03-15T04:48:01.710Z,0.67
2023-03-15T04:49:06.099Z,0.77
2023-03-15T04:50:09.023Z,0.80
2023-03-15T04:51:11.703Z,0.60
2023-03-15T04:52:13.394Z,0.80
2023-03-15T04:53:16.164Z,1.00
2023-03-15T04:54:17.907Z,0.57
2023-03-15T04:55:20.643Z,0.90
2023-03-15T04:56:22.438Z,0.80
2023-03-15T04:57:25.149Z,0.60
2023-03-15T04:58:26.868Z,0.90
2023-03-15T04:59:29.546Z,0.87
2023-03-15T05:00:31.531Z,1.07
2023-03-15T05:01:34.598Z,1.00
2023-03-15T05:02:39.993Z,0.80
2023-03-15T05:03:42.711Z,0.93
2023-03-15T05:04:45.777Z,1.03
2023-03-15T05:05:48.435Z,0.73
2023-03-15T05:06:50.564Z,0.83
2023-03-15T05:07:53.346Z,0.80
2023-03-15T05:08:55.136Z,1.20
2023-03-15T05:09:57.867Z,1.10
2023-03-15T05:10:59.615Z,0.80
2023-03-15T05:12:02.291Z,1.03
2023-03-15T05:13:04.111Z,1.00
2023-03-15T05:14:06.802Z,0.70
2023-03-15T05:15:09.903Z,0.70
2023-03-15T05:16:12.685Z,0.73
2023-03-15T05:17:15.377Z,1.03
2023-03-15T05:18:18.060Z,1.17
2023-03-15T05:19:20.381Z,1.23
2023-03-15T05:20:25.241Z,1.40
2023-03-15T05:21:26.985Z,1.50
2023-03-15T05:22:29.621Z,1.07
2023-03-15T05:23:32.419Z,0.90
2023-03-15T05:24:35.396Z,1.10
2023-03-15T05:25:38.847Z,1.00
2023-03-15T05:26:41.682Z,0.90
2023-03-15T05:27:46.441Z,0.93
2023-03-15T05:28:49.094Z,1.27
2023-03-15T05:29:51.426Z,0.90
2023-03-15T05:30:54.475Z,1.00
2023-03-15T05:31:56.547Z,1.10
2023-03-15T05:32:59.609Z,0.40
2023-03-15T05:34:04.291Z,0.80
2023-03-15T05:35:08.561Z,0.90
2023-03-15T05:36:14.458Z,0.80
2023-03-15T05:37:17.235Z,1.10
2023-03-15T05:38:19.058Z,0.60
2023-03-15T05:39:22.893Z,0.77
2023-03-15T05:40:24.694Z,1.07
2023-03-15T05:41:27.345Z,0.90
2023-03-15T05:42:29.385Z,0.83
2023-03-15T05:43:32.095Z,1.10
2023-03-15T05:44:33.753Z,1.37
2023-03-15T05:45:36.513Z,0.93
2023-03-15T05:46:38.215Z,0.80
2023-03-15T05:47:40.877Z,0.90
2023-03-15T05:48:42.822Z,1.20
2023-03-15T05:49:45.490Z,0.93
2023-03-15T05:50:47.163Z,0.93
2023-03-15T05:51:51.138Z,1.10
2023-03-15T05:52:53.369Z,1.07
2023-03-15T05:53:56.010Z,1.10
2023-03-15T05:54:57.689Z,1.03
2023-03-15T05:56:00.453Z,0.70
2023-03-15T05:57:02.138Z,0.90
2023-03-15T05:58:04.844Z,0.67
2023-03-15T05:59:06.691Z,1.40
2023-03-15T06:00:11.010Z,1.07
2023-03-15T06:01:12.835Z,0.90
2023-03-15T06:02:15.549Z,1.03
2023-03-15T06:03:17.533Z,0.73
2023-03-15T06:04:20.274Z,0.77
2023-03-15T06:05:22.014Z,1.40
2023-03-15T06:06:24.703Z,1.10
2023-03-15T06:07:27.891Z,1.00
2023-03-15T06:08:30.574Z,1.10
2023-03-15T06:09:32.262Z,0.93
2023-03-15T06:10:35.024Z,1.00
2023-03-15T06:11:36.714Z,1.27
2023-03-15T06:12:39.441Z,1.10
2023-03-15T06:13:41.145Z,1.03
2023-03-15T06:14:43.881Z,0.93
2023-03-15T06:15:46.684Z,1.20
2023-03-15T06:16:49.422Z,1.13
2023-03-15T06:17:52.353Z,1.23
2023-03-15T06:18:54.083Z,1.10
2023-03-15T06:19:56.710Z,1.13
2023-03-15T06:20:58.358Z,1.07
2023-03-15T06:22:01.051Z,1.30
2023-03-15T06:23:04.217Z,1.07
2023-03-15T06:24:08.149Z,1.10
2023-03-15T06:25:10.584Z,1.07
2023-03-15T06:26:15.351Z,1.47
2023-03-15T06:27:21.895Z,1.20
2023-03-15T06:28:24.908Z,1.30
2023-03-15T06:29:26.928Z,1.20
2023-03-15T06:30:29.992Z,1.20
2023-03-15T06:31:31.702Z,1.20
2023-03-15T06:32:34.412Z,1.60
2023-03-15T06:33:36.117Z,1.57
2023-03-15T06:34:38.836Z,1.20
2023-03-15T06:35:40.945Z,1.33
2023-03-15T06:36:43.844Z,1.40
2023-03-15T06:37:45.557Z,1.70
2023-03-15T06:38:49.630Z,1.37
2023-03-15T06:39:51.637Z,1.10
2023-03-15T06:40:55.623Z,1.37
2023-03-15T06:41:58.552Z,1.80
2023-03-15T06:43:05.899Z,1.27
2023-03-15T06:44:07.706Z,1.60
2023-03-15T06:45:11.020Z,1.50
2023-03-15T06:46:12.829Z,1.33
2023-03-15T06:47:15.540Z,1.53
2023-03-15T06:48:17.560Z,2.07
2023-03-15T06:49:20.249Z,1.77
2023-03-15T06:50:21.953Z,1.50
2023-03-15T06:51:24.783Z,1.60
2023-03-15T06:52:26.504Z,1.40
2023-03-15T06:53:29.142Z,1.77
2023-03-15T06:54:33.247Z,1.50
2023-03-15T06:55:35.101Z,1.90
2023-03-15T06:56:38.407Z,1.53
2023-03-15T06:57:42.988Z,1.23
2023-03-15T06:58:46.321Z,2.17
2023-03-15T06:59:48.964Z,1.63
2023-03-15T07:00:50.686Z,1.60
2023-03-15T07:01:53.440Z,1.87
2023-03-15T07:02:55.208Z,1.80
2023-03-15T07:03:57.886Z,1.50
2023-03-15T07:04:59.553Z,1.50
2023-03-15T07:06:02.242Z,1.80
2023-03-15T07:07:04.358Z,1.50
2023-03-15T07:08:07.299Z,1.87
2023-03-15T07:09:09.106Z,1.60
2023-03-15T07:10:13.514Z,1.50
2023-03-15T07:11:15.273Z,1.80
2023-03-15T07:12:17.900Z,2.00
2023-03-15T07:13:19.973Z,1.40
2023-03-15T07:14:22.953Z,1.33
2023-03-15T07:15:24.804Z,2.00
2023-03-15T07:16:27.615Z,1.90
2023-03-15T07:17:29.338Z,1.13
2023-03-15T07:18:33.553Z,1.20
2023-03-15T07:19:39.164Z,1.10
2023-03-15T07:20:44.146Z,1.70
2023-03-15T07:21:46.885Z,1.93
2023-03-15T07:22:49.782Z,1.50
2023-03-15T07:23:52.510Z,1.20
2023-03-15T07:24:54.246Z,1.23
2023-03-15T07:25:58.476Z,1.43
2023-03-15T07:27:00.196Z,1.50
2023-03-15T07:28:03.063Z,1.70
2023-03-15T07:29:04.799Z,2.00
2023-03-15T07:30:09.591Z,1.70
2023-03-15T07:31:11.707Z,1.50
2023-03-15T07:32:14.567Z,1.47
2023-03-15T07:33:16.364Z,2.13
2023-03-15T07:34:19.160Z,1.70
2023-03-15T07:35:20.906Z,1.70
2023-03-15T07:36:23.938Z,1.70
2023-03-15T07:37:25.674Z,1.40
2023-03-15T07:38:29.780Z,1.77
2023-03-15T07:39:32.602Z,1.80
2023-03-15T07:40:35.373Z,1.77
2023-03-15T07:41:39.451Z,2.17
2023-03-15T07:42:41.239Z,1.40
2023-03-15T07:43:44.108Z,2.27
2023-03-15T07:44:45.778Z,2.03
2023-03-15T07:45:48.563Z,2.20
2023-03-15T07:46:50.431Z,1.63
2023-03-15T07:47:56.143Z,1.87
2023-03-15T07:48:58.294Z,1.70
2023-03-15T07:50:00.958Z,1.90
2023-03-15T07:51:02.752Z,1.60
2023-03-15T07:52:05.925Z,1.80
2023-03-15T07:53:08.858Z,1.77
2023-03-15T07:54:11.634Z,1.60
2023-03-15T07:55:13.336Z,2.00
2023-03-15T07:56:16.249Z,1.80
2023-03-15T07:57:20.286Z,1.90
2023-03-15T07:58:21.984Z,2.03
2023-03-15T07:59:24.663Z,2.87
2023-03-15T08:00:26.895Z,1.87
2023-03-15T08:01:29.666Z,2.17
2023-03-15T08:02:32.306Z,1.70
2023-03-15T08:03:34.001Z,2.23
2023-03-15T08:04:37.056Z,2.00
2023-03-15T08:05:39.926Z,2.27
2023-03-15T08:06:41.628Z,2.00
2023-03-15T08:07:44.242Z,2.50
2023-03-15T08:08:46.672Z,2.17
2023-03-15T08:09:49.415Z,2.17
2023-03-15T08:10:51.145Z,2.00
2023-03-15T08:11:53.825Z,2.30
2023-03-15T08:12:57.001Z,2.00
2023-03-15T08:13:59.833Z,2.53
2023-03-15T08:15:01.567Z,2.30
2023-03-15T08:16:04.352Z,2.10
2023-03-15T08:17:07.261Z,2.03
2023-03-15T08:18:10.093Z,2.77
2023-03-15T08:19:11.780Z,2.20
2023-03-15T08:20:17.598Z,1.90
2023-03-15T08:21:21.411Z,2.93
2023-03-15T08:22:23.981Z,1.70
2023-03-15T08:23:26.706Z,2.53
2023-03-15T08:24:28.410Z,2.17
2023-03-15T08:25:31.469Z,2.17
2023-03-15T08:26:33.203Z,2.33
2023-03-15T08:27:35.906Z,2.27
2023-03-15T08:28:42.426Z,2.23
2023-03-15T08:29:44.230Z,1.90
2023-03-15T08:30:47.237Z,2.07
2023-03-15T08:31:53.453Z,2.70
2023-03-15T08:32:56.557Z,2.43
2023-03-15T08:33:59.208Z,2.13
2023-03-15T08:35:01.946Z,2.57
2023-03-15T08:36:04.176Z,2.10
2023-03-15T08:37:07.442Z,2.70
2023-03-15T08:38:18.043Z,2.07
2023-03-15T08:39:20.830Z,2.07
2023-03-15T08:40:25.708Z,2.17
2023-03-15T08:41:28.368Z,2.13
2023-03-15T08:42:31.116Z,1.80
2023-03-15T08:43:33.769Z,2.20
2023-03-15T08:44:36.835Z,1.70
2023-03-15T08:45:56.585Z,1.73
2023-03-15T08:47:02.108Z,1.50
2023-03-15T08:48:05.337Z,2.20
2023-03-15T08:49:08.070Z,2.10
2023-03-15T08:50:12.407Z,2.23
2023-03-15T08:51:15.062Z,2.33
2023-03-15T08:52:18.189Z,2.40
2023-03-15T08:53:21.027Z,2.47
2023-03-15T08:54:23.492Z,1.97
2023-03-15T08:55:26.128Z,1.70
2023-03-15T08:56:28.758Z,2.60
2023-03-15T08:57:32.776Z,2.10
2023-03-15T08:58:34.652Z,1.97
2023-03-15T08:59:38.916Z,2.37
2023-03-15T09:00:41.578Z,2.20
2023-03-15T09:01:44.822Z,1.93
2023-03-15T09:02:48.989Z,2.63
2023-03-15T09:03:51.622Z,2.37
2023-03-15T09:04:54.281Z,2.70
2023-03-15T09:05:57.864Z,2.67
2023-03-15T09:07:00.605Z,2.67
2023-03-15T09:08:03.289Z,2.47
2023-03-15T09:09:05.033Z,2.47
2023-03-15T09:10:08.191Z,2.40
2023-03-15T09:11:11.048Z,2.20
2023-03-15T09:12:12.963Z,2.67
2023-03-15T09:13:15.763Z,2.80
2023-03-15T09:14:18.449Z,2.70
2023-03-15T09:15:21.958Z,2.07
2023-03-15T09:16:24.814Z,2.73
2023-03-15T09:17:26.541Z,2.03
2023-03-15T09:18:29.265Z,3.40
2023-03-15T09:19:32.325Z,2.33
2023-03-15T09:20:35.406Z,3.03
2023-03-15T09:21:38.057Z,2.80
2023-03-15T09:22:39.978Z,2.63
2023-03-15T09:23:42.681Z,2.90
2023-03-15T09:24:45.435Z,2.47
2023-03-15T09:25:48.182Z,2.87
2023-03-15T09:26:52.716Z,2.77
2023-03-15T09:27:55.730Z,2.30
2023-03-15T09:28:57.426Z,2.97
2023-03-15T09:30:01.698Z,3.30
2023-03-15T09:31:07.710Z,2.67
2023-03-15T09:32:09.728Z,3.30
2023-03-15T09:33:14.851Z,3.00
2023-03-15T09:34:17.024Z,2.53
2023-03-15T09:35:21.240Z,2.67
2023-03-15T09:36:22.982Z,2.47
2023-03-15T09:37:26.521Z,2.50
2023-03-15T09:38:29.711Z,2.30
2023-03-15T09:39:33.397Z,2.73
2023-03-15T09:40:40.645Z,2.97
2023-03-15T09:41:43.936Z,2.80
2023-03-15T09:43:01.030Z,2.33
2023-03-15T09:44:14.521Z,2.50
2023-03-15T09:45:22.859Z,2.50
2023-03-15T09:46:29.653Z,2.83
2023-03-15T09:47:37.440Z,3.13
2023-03-15T09:48:48.622Z,2.60
2023-03-15T09:49:55.036Z,2.50
2023-03-15T09:51:01.277Z,2.37
2023-03-15T09:52:09.791Z,3.10
2023-03-15T09:53:14.973Z,3.03
2023-03-15T09:54:19.927Z,2.73
2023-03-15T09:55:24.740Z,2.43
2023-03-15T09:56:28.683Z,3.00
2023-03-15T09:57:40.238Z,2.87
2023-03-15T09:58:42.007Z,2.40
2023-03-15T09:59:48.107Z,2.40
2023-03-15T10:00:52.818Z,2.70
2023-03-15T10:01:56.863Z,2.93
2023-03-15T10:03:02.135Z,2.30
2023-03-15T10:04:11.001Z,2.07
2023-03-15T10:05:16.775Z,2.87
2023-03-15T10:06:24.357Z,2.60
2023-03-15T10:07:27.353Z,2.90
2023-03-15T10:08:29.390Z,2.67
2023-03-15T10:09:34.454Z,3.03
2023-03-15T10:10:42.447Z,2.47
2023-03-15T10:11:49.245Z,3.07
2023-03-15T10:12:59.699Z,2.80
2023-03-15T10:14:14.409Z,2.80
2023-03-15T10:15:33.725Z,2.20
2023-03-15T10:16:40.183Z,3.03
2023-03-15T10:17:50.111Z,2.93
2023-03-15T10:19:06.959Z,2.43
2023-03-15T10:20:13.092Z,3.33
2023-03-15T10:21:22.324Z,2.57
2023-03-15T10:22:29.302Z,3.13
2023-03-15T10:23:38.268Z,2.70
2023-03-15T10:24:45.530Z,2.90
2023-03-15T10:25:51.168Z,2.60
2023-03-15T10:26:54.050Z,2.83
2023-03-15T10:27:59.355Z,3.20
2023-03-15T10:29:02.871Z,2.80
2023-03-15T10:30:15.840Z,2.53
2023-03-15T10:31:32.904Z,3.07
2023-03-15T10:32:47.001Z,3.53
2023-03-15T10:33:48.843Z,3.00
2023-03-15T10:34:53.912Z,3.20
2023-03-15T10:36:09.711Z,3.10
2023-03-15T10:37:13.743Z,2.70
2023-03-15T10:38:16.240Z,2.93
2023-03-15T10:39:19.529Z,3.47
2023-03-15T10:40:41.970Z,2.50
2023-03-15T10:41:45.265Z,2.70
2023-03-15T10:42:48.728Z,3.07
2023-03-15T10:43:59.715Z,2.60
2023-03-15T10:45:20.538Z,2.97
2023-03-15T10:46:24.538Z,2.90
2023-03-15T10:47:28.456Z,3.10
2023-03-15T10:48:34.076Z,2.97
2023-03-15T10:49:36.570Z,2.90
2023-03-15T10:50:40.539Z,2.87
2023-03-15T10:51:44.766Z,2.87
2023-03-15T10:52:49.363Z,2.60
2023-03-15T10:53:54.183Z,3.17
2023-03-15T10:55:03.944Z,3.17
2023-03-15T10:56:08.971Z,2.63
2023-03-15T10:57:14.859Z,2.80
2023-03-15T10:58:25.788Z,3.07
2023-03-15T10:59:30.749Z,2.90
2023-03-15T11:00:33.915Z,2.58
2023-03-15T11:01:37.550Z,3.03
2023-03-15T11:02:50.275Z,2.10
2023-03-15T11:04:14.932Z,2.65
2023-03-15T11:05:18.594Z,2.78
2023-03-15T11:06:23.243Z,2.13
2023-03-15T11:07:25.526Z,2.20
2023-03-15T11:08:40.054Z,2.43
2023-03-15T11:09:43.681Z,2.75
2023-03-15T11:10:47.303Z,2.40
2023-03-15T11:11:55.816Z,2.75
2023-03-15T11:13:12.229Z,2.58
2023-03-15T11:14:15.214Z,2.60
2023-03-15T11:15:19.735Z,2.03
2023-03-15T11:16:22.222Z,2.20
2023-03-15T11:17:27.244Z,2.53
2023-03-15T11:18:33.917Z,2.30
2023-03-15T11:19:42.829Z,2.60
2023-03-15T11:20:45.398Z,2.35
2023-03-15T11:21:50.350Z,2.33
2023-03-15T11:22:53.354Z,2.00
2023-03-15T11:23:56.731Z,2.22
2023-03-15T11:24:59.554Z,2.63
2023-03-15T11:26:01.659Z,2.35
2023-03-15T11:27:12.055Z,2.47
2023-03-15T11:28:18.348Z,2.80
2023-03-15T11:29:23.510Z,2.27
2023-03-15T11:30:29.286Z,2.47
2023-03-15T11:31:32.306Z,1.98
2023-03-15T11:32:35.090Z,2.13
2023-03-15T11:33:41.659Z,2.20
2023-03-15T11:34:51.900Z,1.92
2023-03-15T11:35:55.222Z,2.20
2023-03-15T11:37:08.429Z,2.38
2023-03-15T11:38:15.583Z,2.10
2023-03-15T11:39:27.988Z,1.93
2023-03-15T11:40:32.760Z,1.90
2023-03-15T11:41:41.044Z,2.08
2023-03-15T11:42:49.335Z,2.00
2023-03-15T11:43:58.103Z,2.15
2023-03-15T11:45:04.201Z,1.93
2023-03-15T11:46:09.747Z,2.13
2023-03-15T11:47:16.098Z,2.13
2023-03-15T11:48:21.617Z,1.92
2023-03-15T11:49:31.597Z,1.80
2023-03-15T11:50:35.798Z,1.73
2023-03-15T11:51:37.577Z,1.73
2023-03-15T11:52:41.253Z,1.73
2023-03-15T11:53:46.860Z,2.05
2023-03-15T11:54:50.284Z,1.70
2023-03-15T11:55:53.789Z,2.05
2023-03-15T11:56:57.825Z,2.00
2023-03-15T11:58:31.306Z,1.75
2023-03-15T11:59:35.661Z,2.05
2023-03-15T12:00:54.161Z,1.80
2023-03-15T12:01:59.950Z,1.70
2023-03-15T12:03:24.712Z,1.20
2023-03-15T12:04:40.274Z,1.90
2023-03-15T12:05:45.705Z,1.70
2023-03-15T12:06:48.974Z,1.60
2023-03-15T12:07:58.804Z,1.95
2023-03-15T12:09:01.844Z,1.60
2023-03-15T12:10:31.891Z,1.60
2023-03-15T12:11:42.528Z,1.48
2023-03-15T12:12:58.124Z,1.80
2023-03-15T12:14:06.592Z,1.70
2023-03-15T12:15:43.708Z,1.50
2023-03-15T12:16:47.121Z,1.65
2023-03-15T12:17:51.865Z,1.80
2023-03-15T12:18:59.068Z,1.38
2023-03-15T12:20:02.746Z,1.42
2023-03-15T12:21:12.953Z,1.90
2023-03-15T12:22:17.414Z,1.67
2023-03-15T12:23:31.574Z,1.50
2023-03-15T12:24:38.645Z,1.50
2023-03-15T12:25:54.815Z,1.90
2023-03-15T12:27:02.312Z,2.00
2023-03-15T12:28:08.912Z,1.58
2023-03-15T12:29:19.211Z,1.35
2023-03-15T12:30:23.641Z,1.50
2023-03-15T12:31:26.836Z,1.90
2023-03-15T12:32:31.179Z,1.67
2023-03-15T12:33:44.776Z,1.60
2023-03-15T12:34:49.353Z,1.58
2023-03-15T12:35:51.468Z,2.40
2023-03-15T12:36:58.107Z,1.63
2023-03-15T12:38:02.517Z,1.83
2023-03-15T12:39:23.062Z,1.58
2023-03-15T12:40:52.760Z,1.60
2023-03-15T12:41:54.489Z,1.90
2023-03-15T12:43:02.998Z,1.80
2023-03-15T12:44:28.309Z,2.08
2023-03-15T12:45:41.413Z,1.55
2023-03-15T12:46:58.700Z,1.60
2023-03-15T12:48:22.053Z,1.83
2023-03-15T12:49:36.964Z,1.70
2023-03-15T12:50:52.834Z,2.00
2023-03-15T12:51:59.698Z,1.60
2023-03-15T12:53:03.701Z,1.67
2023-03-15T12:54:09.254Z,1.85
2023-03-15T12:55:24.646Z,1.67
2023-03-15T12:56:42.605Z,1.98
2023-03-15T12:57:49.894Z,1.42
2023-03-15T12:58:54.643Z,1.33
2023-03-15T13:00:02.686Z,1.45
2023-03-15T13:01:06.670Z,1.52
2023-03-15T13:02:35.756Z,1.70
2023-03-15T13:03:45.127Z,1.42
2023-03-15T13:04:52.904Z,1.40
2023-03-15T13:06:04.536Z,2.00
2023-03-15T13:07:25.039Z,1.75
2023-03-15T13:08:31.875Z,1.80
2023-03-15T13:09:52.028Z,1.80
2023-03-15T13:11:03.925Z,1.85
2023-03-15T13:12:08.787Z,1.50
2023-03-15T13:13:21.600Z,1.80
2023-03-15T13:14:35.248Z,1.98
2023-03-15T13:15:42.834Z,1.55
2023-03-15T13:16:49.631Z,1.70
2023-03-15T13:17:55.599Z,1.60
2023-03-15T13:19:05.419Z,1.90
2023-03-15T13:20:27.569Z,2.65
2023-03-15T13:21:35.713Z,1.83
2023-03-15T13:22:55.055Z,1.60
2023-03-15T13:24:02.193Z,1.70
2023-03-15T13:25:09.740Z,2.10
2023-03-15T13:26:23.336Z,1.85
2023-03-15T13:27:36.693Z,1.90
2023-03-15T13:28:42.347Z,1.75
2023-03-15T13:29:45.485Z,2.05
2023-03-15T13:30:48.270Z,1.88
2023-03-15T13:34:15.471Z,1.52
2023-03-15T13:35:23.770Z,1.63
2023-03-15T13:36:27.880Z,1.50
2023-03-15T13:37:29.693Z,1.63
2023-03-15T13:38:35.737Z,1.98
2023-03-15T13:39:38.531Z,1.80
2023-03-15T13:40:46.242Z,1.63
2023-03-15T13:41:48.982Z,1.60
2023-03-15T13:42:50.685Z,1.58
2023-03-15T13:43:55.237Z,1.58
2023-03-15T13:45:18.899Z,1.50
2023-03-15T13:46:24.152Z,1.65
2023-03-15T13:47:27.471Z,1.73
2023-03-15T13:48:30.974Z,1.70
2023-03-15T13:49:34.721Z,1.60
2023-03-15T13:50:36.821Z,1.85
2023-03-15T13:51:40.053Z,1.70
2023-03-15T13:52:44.158Z,1.30
2023-03-15T13:53:50.334Z,1.50
2023-03-15T13:54:53.843Z,1.25
2023-03-15T13:55:57.312Z,1.27
2023-03-15T13:57:03.552Z,1.30
2023-03-15T13:58:06.911Z,1.00
2023-03-15T13:59:12.218Z,1.50
2023-03-15T14:00:17.790Z,1.50
2023-03-15T14:01:23.091Z,1.38
2023-03-15T14:02:26.018Z,1.30
2023-03-15T14:03:29.358Z,1.13
2023-03-15T14:04:35.403Z,1.20
2023-03-15T14:05:43.797Z,1.48
2023-03-15T14:06:46.884Z,1.15
2023-03-15T14:07:49.980Z,1.73
2023-03-15T14:08:55.802Z,1.30
2023-03-15T14:10:24.392Z,1.17
2023-03-15T14:11:37.206Z,1.20
2023-03-15T14:12:39.042Z,1.10
2023-03-15T14:13:49.693Z,1.30
2023-03-15T14:14:52.669Z,1.25
2023-03-15T14:15:59.083Z,1.35
2023-03-15T14:17:08.940Z,1.40
2023-03-15T14:18:17.171Z,1.23
2023-03-15T14:19:21.444Z,1.10
2023-03-15T14:20:28.470Z,1.20
2023-03-15T14:21:32.794Z,1.10
2023-03-15T14:22:35.859Z,0.77
2023-03-15T14:23:41.639Z,1.02